createdAt,value
2023-01-26T00:00:47.423Z,101152.78
2023-01-26T00:03:14.698Z,101151.66
2023-01-26T00:05:41.627Z,101154.06
2023-01-26T00:08:09.116Z,101144.03
2023-01-26T00:10:36.956Z,101137.16
2023-01-26T00:13:04.447Z,101132.88
2023-01-26T00:15:34.938Z,101136.44
2023-01-26T00:18:02.455Z,101126.84
2023-01-26T00:20:29.514Z,101123.38
2023-01-26T00:22:56.454Z,101126.69
2023-01-26T00:25:23.352Z,101118.13
2023-01-26T00:27:50.107Z,101120.69
2023-01-26T00:30:17.017Z,101118.09
2023-01-26T00:32:43.862Z,101117.16
2023-01-26T00:35:10.772Z,101117.88
2023-01-26T00:37:37.500Z,101113.84
2023-01-26T00:40:04.360Z,101111.00
2023-01-26T00:42:31.042Z,101110.38
2023-01-26T00:44:57.743Z,101101.53
2023-01-26T00:47:24.412Z,101099.03
2023-01-26T00:49:51.146Z,101101.03
2023-01-26T00:52:17.975Z,101106.19
2023-01-26T00:54:44.717Z,101104.03
2023-01-26T00:57:11.563Z,101108.94
2023-01-26T00:59:38.326Z,101109.28
2023-01-26T01:02:05.096Z,101104.00
2023-01-26T01:04:31.900Z,101098.59
2023-01-26T01:06:58.632Z,101092.09
2023-01-26T01:09:25.441Z,101101.03
2023-01-26T01:11:52.152Z,101113.97
2023-01-26T01:14:18.825Z,101107.00
2023-01-26T01:16:46.643Z,101108.81
2023-01-26T01:19:14.873Z,101106.00
2023-01-26T01:21:41.644Z,101108.13
2023-01-26T01:24:08.591Z,101093.81
2023-01-26T01:26:35.345Z,101093.44
2023-01-26T01:29:02.060Z,101094.59
2023-01-26T01:31:29.699Z,101095.03
2023-01-26T01:33:56.745Z,101095.81
2023-01-26T01:36:23.887Z,101085.03
2023-01-26T01:38:50.622Z,101085.41
2023-01-26T01:41:18.513Z,101082.44
2023-01-26T01:43:45.271Z,101083.25
2023-01-26T01:46:11.954Z,101079.03
2023-01-26T01:48:58.964Z,101069.81
2023-01-26T01:51:45.853Z,101080.19
2023-01-26T01:54:15.611Z,101074.88
2023-01-26T01:56:45.962Z,101071.94
2023-01-26T01:59:13.858Z,101072.66
2023-01-26T02:01:40.784Z,101069.31
2023-01-26T02:04:07.872Z,101068.06
2023-01-26T02:06:43.805Z,101066.12
2023-01-26T02:09:30.572Z,101061.19
2023-01-26T02:11:57.603Z,101062.78
2023-01-26T02:14:25.344Z,101048.09
2023-01-26T02:16:52.026Z,101046.13
2023-01-26T02:19:27.633Z,101042.84
2023-01-26T02:21:56.043Z,101039.53
2023-01-26T02:24:26.536Z,101036.41
2023-01-26T02:26:54.874Z,101034.41
2023-01-26T02:29:22.703Z,101032.44
2023-01-26T02:31:49.481Z,101035.34
2023-01-26T02:34:16.202Z,101037.37
2023-01-26T02:36:42.931Z,101015.28
2023-01-26T02:39:17.962Z,101021.94
2023-01-26T02:42:04.773Z,101017.78
2023-01-26T02:44:32.412Z,101005.81
2023-01-26T02:46:59.106Z,101009.63
2023-01-26T02:49:44.125Z,101000.28
2023-01-26T02:52:10.884Z,101011.38
2023-01-26T02:54:56.061Z,100991.72
2023-01-26T02:57:22.708Z,100984.47
2023-01-26T02:59:49.495Z,100978.75
2023-01-26T03:02:16.344Z,100980.78
2023-01-26T03:04:43.680Z,100976.13
2023-01-26T03:07:10.912Z,100971.41
2023-01-26T03:09:37.662Z,100963.41
2023-01-26T03:12:04.693Z,100958.63
2023-01-26T03:14:31.404Z,100962.06
2023-01-26T03:16:58.076Z,100960.25
2023-01-26T03:19:43.427Z,100952.34
2023-01-26T03:22:29.613Z,100953.34
2023-01-26T03:25:14.699Z,100952.81
2023-01-26T03:27:47.999Z,100941.50
2023-01-26T03:30:15.637Z,100944.06
2023-01-26T03:32:42.463Z,100941.78
2023-01-26T03:35:15.292Z,100937.41
2023-01-26T03:37:43.899Z,100933.25
2023-01-26T03:40:30.788Z,100942.69
2023-01-26T03:43:16.498Z,100932.37
2023-01-26T03:46:01.719Z,100935.28
2023-01-26T03:48:46.903Z,100935.16
2023-01-26T03:51:32.147Z,100926.34
2023-01-26T03:54:17.189Z,100932.44
2023-01-26T03:56:44.823Z,100930.12
2023-01-26T03:59:15.340Z,100928.87
2023-01-26T04:02:02.331Z,100921.94
2023-01-26T04:04:47.272Z,100917.34
2023-01-26T04:07:32.522Z,100907.94
2023-01-26T04:09:59.256Z,100913.75
2023-01-26T04:12:25.956Z,100902.38
2023-01-26T04:15:11.106Z,100900.38
2023-01-26T04:17:56.222Z,100900.69
2023-01-26T04:20:41.273Z,100895.66
2023-01-26T04:23:07.972Z,100892.19
2023-01-26T04:25:34.673Z,100877.50
2023-01-26T04:28:01.284Z,100885.91
2023-01-26T04:30:28.064Z,100892.97
2023-01-26T04:32:54.772Z,100892.44
2023-01-26T04:35:21.495Z,100905.00
2023-01-26T04:37:48.582Z,100897.84
2023-01-26T04:40:15.423Z,100897.09
2023-01-26T04:42:42.084Z,100894.16
2023-01-26T04:45:10.263Z,100898.13
2023-01-26T04:47:36.934Z,100897.91
2023-01-26T04:50:03.906Z,100890.91
2023-01-26T04:52:30.584Z,100887.13
2023-01-26T04:54:57.264Z,100888.22
2023-01-26T04:57:24.870Z,100888.41
2023-01-26T04:59:51.593Z,100891.34
2023-01-26T05:02:18.297Z,100895.19
2023-01-26T05:04:45.027Z,100893.91
2023-01-26T05:07:11.704Z,100896.66
2023-01-26T05:09:38.346Z,100899.69
2023-01-26T05:12:23.616Z,100890.72
2023-01-26T05:14:50.293Z,100888.19
2023-01-26T05:17:16.945Z,100896.09
2023-01-26T05:19:43.614Z,100894.53
2023-01-26T05:22:12.419Z,100891.81
2023-01-26T05:24:39.285Z,100890.81
2023-01-26T05:27:21.268Z,100888.94
2023-01-26T05:29:48.152Z,100886.34
2023-01-26T05:32:14.824Z,100881.91
2023-01-26T05:34:41.585Z,100879.41
2023-01-26T05:37:08.233Z,100886.09
2023-01-26T05:39:34.915Z,100881.50
2023-01-26T05:42:01.582Z,100878.63
2023-01-26T05:44:29.493Z,100880.75
2023-01-26T05:46:56.232Z,100883.34
2023-01-26T05:49:22.892Z,100882.88
2023-01-26T05:51:49.833Z,100880.41
2023-01-26T05:54:16.492Z,100885.28
2023-01-26T05:56:43.265Z,100887.25
2023-01-26T05:59:09.999Z,100883.34
2023-01-26T06:01:36.765Z,100884.28
2023-01-26T06:04:03.521Z,100882.75
2023-01-26T06:06:30.312Z,100876.19
2023-01-26T06:08:57.922Z,100879.88
2023-01-26T06:11:24.943Z,100880.19
2023-01-26T06:13:51.719Z,100887.69
2023-01-26T06:16:18.457Z,100887.97
2023-01-26T06:18:47.787Z,100882.41
2023-01-26T06:21:14.370Z,100885.31
2023-01-26T06:23:41.063Z,100878.19
2023-01-26T06:26:09.911Z,100880.94
2023-01-26T06:28:37.542Z,100872.62
2023-01-26T06:31:05.008Z,100869.06
2023-01-26T06:33:34.574Z,100874.47
2023-01-26T06:36:01.940Z,100876.50
2023-01-26T06:38:28.630Z,100871.41
2023-01-26T06:40:55.881Z,100878.41
2023-01-26T06:43:22.577Z,100891.53
2023-01-26T06:45:50.099Z,100876.00
2023-01-26T06:48:16.762Z,100875.34
2023-01-26T06:50:44.833Z,100880.06
2023-01-26T06:53:26.721Z,100884.81
2023-01-26T06:55:53.681Z,100878.44
2023-01-26T06:58:20.333Z,100879.25
2023-01-26T07:00:50.063Z,100886.16
2023-01-26T07:03:16.773Z,100881.63
2023-01-26T07:05:43.507Z,100882.03
2023-01-26T07:08:10.183Z,100879.53
2023-01-26T07:10:37.384Z,100877.19
2023-01-26T07:13:04.902Z,100870.38
2023-01-26T07:15:32.024Z,100871.19
2023-01-26T07:17:59.065Z,100872.97
2023-01-26T07:20:29.017Z,100876.16
2023-01-26T07:22:56.032Z,100875.03
2023-01-26T07:25:23.458Z,100874.28
2023-01-26T07:27:55.283Z,100864.81
2023-01-26T07:30:21.992Z,100881.63
2023-01-26T07:32:48.796Z,100880.38
2023-01-26T07:35:15.645Z,100874.44
2023-01-26T07:37:42.523Z,100876.03
2023-01-26T07:40:10.036Z,100869.62
2023-01-26T07:42:37.121Z,100871.88
2023-01-26T07:45:06.181Z,100871.69
2023-01-26T07:47:33.025Z,100871.41
2023-01-26T07:50:02.152Z,100865.19
2023-01-26T07:52:28.929Z,100857.41
2023-01-26T07:54:58.040Z,100856.88
2023-01-26T07:57:24.818Z,100859.19
2023-01-26T07:59:51.633Z,100872.88
2023-01-26T08:02:18.485Z,100862.66
2023-01-26T08:04:47.372Z,100855.56
2023-01-26T08:07:14.121Z,100861.88
2023-01-26T08:09:41.081Z,100861.88
2023-01-26T08:12:07.867Z,100857.94
2023-01-26T08:14:46.426Z,100862.75
2023-01-26T08:17:14.020Z,100867.34
2023-01-26T08:19:40.694Z,100870.34
2023-01-26T08:22:07.454Z,100864.50
2023-01-26T08:24:34.232Z,100865.34
2023-01-26T08:27:01.103Z,100869.53
2023-01-26T08:29:29.741Z,100862.31
2023-01-26T08:31:56.752Z,100871.44
2023-01-26T08:34:23.633Z,100869.53
2023-01-26T08:36:50.351Z,100865.84
2023-01-26T08:39:17.193Z,100851.97
2023-01-26T08:41:43.955Z,100857.84
2023-01-26T08:44:11.228Z,100867.75
2023-01-26T08:46:38.059Z,100862.94
2023-01-26T08:49:04.963Z,100861.38
2023-01-26T08:51:31.870Z,100870.34
2023-01-26T08:53:58.796Z,100863.25
2023-01-26T08:56:25.555Z,100866.16
2023-01-26T08:58:52.450Z,100861.91
2023-01-26T09:01:21.268Z,100862.59
2023-01-26T09:03:48.113Z,100862.66
2023-01-26T09:06:16.159Z,100863.03
2023-01-26T09:08:43.045Z,100866.22
2023-01-26T09:11:10.223Z,100867.69
2023-01-26T09:13:40.261Z,100863.25
2023-01-26T09:16:08.023Z,100867.56
2023-01-26T09:18:37.111Z,100866.41
2023-01-26T09:21:05.223Z,100869.84
2023-01-26T09:23:35.957Z,100863.78
2023-01-26T09:26:05.986Z,100868.91
2023-01-26T09:28:32.847Z,100866.97
2023-01-26T09:31:07.180Z,100854.25
2023-01-26T09:33:34.105Z,100860.00
2023-01-26T09:36:08.491Z,100864.97
2023-01-26T09:38:35.524Z,100855.75
2023-01-26T09:41:06.561Z,100851.53
2023-01-26T09:43:48.826Z,100847.53
2023-01-26T09:46:24.852Z,100845.62
2023-01-26T09:49:04.049Z,100842.72
2023-01-26T09:51:39.972Z,100840.50
2023-01-26T09:54:25.432Z,100846.09
2023-01-26T09:56:52.296Z,100831.13
2023-01-26T09:59:28.304Z,100833.47
2023-01-26T10:02:15.913Z,100836.16
2023-01-26T10:04:44.776Z,100828.44
2023-01-26T10:07:17.894Z,100823.31
2023-01-26T10:09:49.244Z,100823.84
2023-01-26T10:12:33.844Z,100819.16
2023-01-26T10:15:08.531Z,100811.66
2023-01-26T10:17:37.053Z,100806.50
2023-01-26T10:20:17.624Z,100809.66
2023-01-26T10:22:55.074Z,100804.44
2023-01-26T10:25:42.196Z,100800.41
2023-01-26T10:28:16.676Z,100794.34
2023-01-26T10:30:47.442Z,100794.59
2023-01-26T10:33:17.645Z,100789.44
2023-01-26T10:35:44.944Z,100780.03
2023-01-26T10:38:30.136Z,100772.09
2023-01-26T10:40:59.292Z,100778.47
2023-01-26T10:43:26.402Z,100772.06
2023-01-26T10:45:53.285Z,100774.25
2023-01-26T10:48:28.815Z,100774.25
2023-01-26T10:51:04.083Z,100766.34
2023-01-26T10:53:30.902Z,100773.31
2023-01-26T10:55:59.784Z,100767.06
2023-01-26T10:58:42.133Z,100765.56
2023-01-26T11:01:18.982Z,100770.34
2023-01-26T11:04:00.337Z,100768.72
2023-01-26T11:06:31.724Z,100766.91
2023-01-26T11:09:17.141Z,100763.38
2023-01-26T11:11:54.802Z,100763.97
2023-01-26T11:14:23.549Z,100755.28
2023-01-26T11:17:05.694Z,100751.06
2023-01-26T11:19:52.753Z,100745.50
2023-01-26T11:22:30.494Z,100746.53
2023-01-26T11:25:03.715Z,100744.00
2023-01-26T11:27:53.905Z,100742.56
2023-01-26T11:30:39.534Z,100738.56
2023-01-26T11:33:24.983Z,100727.69
2023-01-26T11:35:54.934Z,100723.41
2023-01-26T11:38:30.363Z,100730.94
2023-01-26T11:41:05.111Z,100721.91
2023-01-26T11:43:33.041Z,100725.66
2023-01-26T11:46:18.593Z,100723.56
2023-01-26T11:49:10.783Z,100727.44
2023-01-26T11:51:43.336Z,100720.19
2023-01-26T11:54:16.329Z,100715.50
2023-01-26T11:56:55.265Z,100698.06
2023-01-26T11:59:29.633Z,100705.13
2023-01-26T12:02:17.693Z,100686.88
2023-01-26T12:04:47.099Z,100690.47
2023-01-26T12:07:21.647Z,100688.53
2023-01-26T12:09:49.058Z,100675.53
2023-01-26T12:12:23.213Z,100676.41
2023-01-26T12:15:08.779Z,100668.22
2023-01-26T12:17:58.490Z,100677.44
2023-01-26T12:20:31.985Z,100665.03
2023-01-26T12:23:03.468Z,100658.13
2023-01-26T12:25:35.378Z,100669.97
2023-01-26T12:28:20.903Z,100662.34
2023-01-26T12:30:58.778Z,100654.59
2023-01-26T12:33:26.033Z,100649.03
2023-01-26T12:36:14.265Z,100646.03
2023-01-26T12:38:47.896Z,100643.16
2023-01-26T12:41:19.593Z,100641.22
2023-01-26T12:43:50.349Z,100634.91
2023-01-26T12:46:18.019Z,100641.97
2023-01-26T12:48:53.133Z,100637.37
2023-01-26T12:51:27.878Z,100631.03
2023-01-26T12:53:58.584Z,100632.75
2023-01-26T12:56:28.336Z,100636.22
2023-01-26T12:58:59.706Z,100631.62
2023-01-26T13:01:36.919Z,100632.44
2023-01-26T13:04:08.899Z,100628.38
2023-01-26T13:06:35.823Z,100620.94
2023-01-26T13:09:19.744Z,100617.44
2023-01-26T13:11:48.000Z,100620.75
2023-01-26T13:14:24.120Z,100615.81
2023-01-26T13:16:50.854Z,100615.72
2023-01-26T13:19:38.762Z,100616.53
2023-01-26T13:22:25.364Z,100623.53
2023-01-26T13:25:10.813Z,100619.25
2023-01-26T13:27:42.477Z,100617.66
2023-01-26T13:30:27.447Z,100618.44
2023-01-26T13:32:54.155Z,100612.88
2023-01-26T13:35:22.250Z,100607.78
2023-01-26T13:38:08.181Z,100624.03
2023-01-26T13:40:36.163Z,100617.03
2023-01-26T13:43:26.202Z,100619.16
2023-01-26T13:46:12.848Z,100622.91
2023-01-26T13:48:39.542Z,100619.97
2023-01-26T13:51:07.605Z,100608.66
2023-01-26T13:53:34.316Z,100617.50
2023-01-26T13:56:04.463Z,100621.34
2023-01-26T13:58:31.662Z,100617.13
2023-01-26T14:01:01.567Z,100613.50
2023-01-26T14:03:28.699Z,100610.53
2023-01-26T14:05:57.788Z,100617.81
2023-01-26T14:08:25.306Z,100615.94
2023-01-26T14:10:52.777Z,100613.53
2023-01-26T14:13:24.812Z,100607.13
2023-01-26T14:16:01.678Z,100614.78
2023-01-26T14:18:28.616Z,100612.53
2023-01-26T14:20:59.883Z,100614.72
2023-01-26T14:23:31.929Z,100615.47
2023-01-26T14:26:00.434Z,100611.69
2023-01-26T14:28:31.834Z,100617.66
2023-01-26T14:31:02.177Z,100626.94
2023-01-26T14:33:29.440Z,100616.63
2023-01-26T14:36:00.616Z,100621.69
2023-01-26T14:38:33.235Z,100621.53
2023-01-26T14:41:01.506Z,100619.87
2023-01-26T14:43:28.495Z,100616.53
2023-01-26T14:45:55.334Z,100624.44
2023-01-26T14:48:25.343Z,100616.09
2023-01-26T14:50:52.643Z,100608.75
2023-01-26T14:53:23.544Z,100617.03
2023-01-26T14:55:51.348Z,100614.62
2023-01-26T14:58:44.099Z,100620.19
2023-01-26T15:01:22.556Z,100614.56
2023-01-26T15:03:51.746Z,100618.97
2023-01-26T15:06:20.625Z,100614.47
2023-01-26T15:09:00.625Z,100621.91
2023-01-26T15:11:53.525Z,100620.06
2023-01-26T15:14:50.947Z,100620.50
2023-01-26T15:17:48.161Z,100629.97
2023-01-26T15:20:14.825Z,100628.62
2023-01-26T15:22:41.592Z,100632.16
2023-01-26T15:25:23.667Z,100626.28
2023-01-26T15:27:52.489Z,100627.94
2023-01-26T15:30:22.335Z,100627.34
2023-01-26T15:32:49.449Z,100621.41
2023-01-26T15:35:24.383Z,100620.75
2023-01-26T15:37:59.793Z,100617.06
2023-01-26T15:40:26.516Z,100616.84
2023-01-26T15:43:05.499Z,100622.97
2023-01-26T15:45:36.482Z,100612.25
2023-01-26T15:48:03.343Z,100612.81
2023-01-26T15:50:30.044Z,100605.38
2023-01-26T15:52:56.707Z,100613.84
2023-01-26T15:55:31.339Z,100615.16
2023-01-26T15:57:58.162Z,100612.81
2023-01-26T16:00:24.863Z,100617.66
2023-01-26T16:02:51.547Z,100617.81
2023-01-26T16:05:19.867Z,100617.03
2023-01-26T16:07:48.713Z,100621.28
2023-01-26T16:10:16.084Z,100609.09
2023-01-26T16:12:42.784Z,100616.22
2023-01-26T16:15:24.377Z,100628.44
2023-01-26T16:17:51.093Z,100622.53
2023-01-26T16:20:18.203Z,100623.69
2023-01-26T16:22:44.934Z,100627.16
2023-01-26T16:25:19.723Z,100633.13
2023-01-26T16:27:46.504Z,100625.50
2023-01-26T16:30:13.282Z,100629.34
2023-01-26T16:32:40.035Z,100634.59
2023-01-26T16:35:10.975Z,100625.09
2023-01-26T16:37:42.348Z,100619.09
2023-01-26T16:40:10.348Z,100614.69
2023-01-26T16:42:39.615Z,100624.25
2023-01-26T16:45:06.991Z,100620.41
2023-01-26T16:47:33.647Z,100618.16
2023-01-26T16:50:00.344Z,100614.66
2023-01-26T16:52:27.088Z,100610.75
2023-01-26T16:54:54.264Z,100614.53
2023-01-26T16:57:21.024Z,100613.00
2023-01-26T16:59:47.956Z,100609.03
2023-01-26T17:02:25.155Z,100613.44
2023-01-26T17:04:54.027Z,100622.03
2023-01-26T17:07:20.703Z,100609.19
2023-01-26T17:09:47.393Z,100614.06
2023-01-26T17:12:14.398Z,100604.91
2023-01-26T17:14:41.217Z,100608.53
2023-01-26T17:17:09.200Z,100613.97
2023-01-26T17:19:36.543Z,100610.47
2023-01-26T17:22:03.840Z,100613.00
2023-01-26T17:24:30.501Z,100607.16
2023-01-26T17:26:57.279Z,100609.91
2023-01-26T17:29:23.961Z,100608.41
2023-01-26T17:31:51.865Z,100611.78
2023-01-26T17:34:19.221Z,100611.56
2023-01-26T17:36:46.209Z,100608.25
2023-01-26T17:39:14.095Z,100607.00
2023-01-26T17:41:40.780Z,100600.09
2023-01-26T17:44:07.508Z,100613.16
2023-01-26T17:46:34.185Z,100620.06
2023-01-26T17:49:00.893Z,100615.31
2023-01-26T17:51:27.582Z,100612.31
2023-01-26T17:53:54.591Z,100607.06
2023-01-26T17:56:21.897Z,100604.53
2023-01-26T17:58:52.533Z,100603.78
2023-01-26T18:01:19.710Z,100604.28
2023-01-26T18:03:46.715Z,100598.66
2023-01-26T18:06:13.483Z,100599.37
2023-01-26T18:08:40.278Z,100594.97
2023-01-26T18:11:08.682Z,100594.38
2023-01-26T18:13:35.460Z,100600.56
2023-01-26T18:16:02.152Z,100601.47
2023-01-26T18:18:29.840Z,100604.78
2023-01-26T18:20:56.831Z,100607.34
2023-01-26T18:23:24.478Z,100598.84
2023-01-26T18:25:51.655Z,100601.25
2023-01-26T18:28:18.507Z,100590.75
2023-01-26T18:30:45.300Z,100598.72
2023-01-26T18:33:12.062Z,100590.16
2023-01-26T18:35:38.882Z,100600.56
2023-01-26T18:38:05.616Z,100600.25
2023-01-26T18:40:32.311Z,100597.84
2023-01-26T18:43:01.214Z,100603.06
2023-01-26T18:45:27.915Z,100599.37
2023-01-26T18:47:54.742Z,100602.19
2023-01-26T18:50:21.533Z,100597.16
2023-01-26T18:52:48.219Z,100596.09
2023-01-26T18:55:15.146Z,100589.09
2023-01-26T18:57:41.933Z,100596.53
2023-01-26T19:00:09.328Z,100590.75
2023-01-26T19:02:41.809Z,100596.06
2023-01-26T19:05:08.981Z,100594.13
2023-01-26T19:07:35.866Z,100590.50
2023-01-26T19:10:05.035Z,100588.97
2023-01-26T19:12:31.855Z,100592.66
2023-01-26T19:14:58.608Z,100591.16
2023-01-26T19:17:25.312Z,100595.72
2023-01-26T19:19:52.221Z,100590.22
2023-01-26T19:22:18.968Z,100581.75
2023-01-26T19:24:45.706Z,100584.88
2023-01-26T19:27:12.438Z,100586.44
2023-01-26T19:29:39.261Z,100582.97
2023-01-26T19:32:06.011Z,100584.22
2023-01-26T19:34:33.936Z,100583.44
2023-01-26T19:37:00.889Z,100580.72
2023-01-26T19:39:27.610Z,100573.41
2023-01-26T19:41:54.398Z,100574.41
2023-01-26T19:44:21.150Z,100576.91
2023-01-26T19:46:50.433Z,100580.31
2023-01-26T19:49:17.708Z,100581.78
2023-01-26T19:51:44.371Z,100576.91
2023-01-26T19:54:11.339Z,100577.13
2023-01-26T19:56:38.163Z,100578.28
2023-01-26T19:59:05.983Z,100576.41
2023-01-26T20:01:32.865Z,100577.66
2023-01-26T20:04:02.614Z,100575.72
2023-01-26T20:06:30.593Z,100573.34
2023-01-26T20:08:57.724Z,100579.94
2023-01-26T20:11:29.679Z,100572.13
2023-01-26T20:13:57.291Z,100573.25
2023-01-26T20:16:24.512Z,100564.62
2023-01-26T20:18:51.245Z,100571.25
2023-01-26T20:21:17.982Z,100561.97
2023-01-26T20:23:53.952Z,100559.09
2023-01-26T20:26:21.637Z,100559.25
2023-01-26T20:28:48.539Z,100566.31
2023-01-26T20:31:16.864Z,100570.69
2023-01-26T20:33:44.903Z,100566.53
2023-01-26T20:36:12.949Z,100568.41
2023-01-26T20:38:40.201Z,100570.72
2023-01-26T20:41:12.962Z,100566.41
2023-01-26T20:43:46.489Z,100567.28
2023-01-26T20:46:24.035Z,100569.06
2023-01-26T20:48:52.184Z,100572.50
2023-01-26T20:51:23.676Z,100567.59
2023-01-26T20:53:50.807Z,100565.75
2023-01-26T20:56:19.773Z,100561.53
2023-01-26T20:58:46.453Z,100568.47
2023-01-26T21:01:14.232Z,100563.75
2023-01-26T21:03:41.464Z,100562.56
2023-01-26T21:06:09.352Z,100563.91
2023-01-26T21:08:39.952Z,100568.41
2023-01-26T21:11:08.355Z,100565.75
2023-01-26T21:13:35.402Z,100562.87
2023-01-26T21:16:02.423Z,100560.16
2023-01-26T21:18:29.275Z,100559.47
2023-01-26T21:20:57.291Z,100565.87
2023-01-26T21:23:24.392Z,100558.78
2023-01-26T21:25:56.977Z,100561.84
2023-01-26T21:28:23.762Z,100549.37
2023-01-26T21:31:00.944Z,100552.03
2023-01-26T21:33:31.403Z,100551.44
2023-01-26T21:35:58.849Z,100557.62
2023-01-26T21:38:25.957Z,100547.16
2023-01-26T21:40:59.996Z,100542.16
2023-01-26T21:43:27.365Z,100540.47
2023-01-26T21:45:57.946Z,100537.97
2023-01-26T21:48:28.045Z,100535.16
2023-01-26T21:51:14.253Z,100524.84
2023-01-26T21:53:41.113Z,100530.03
2023-01-26T21:56:07.823Z,100530.81
2023-01-26T21:58:53.113Z,100522.94
2023-01-26T22:01:20.860Z,100520.44
2023-01-26T22:03:48.019Z,100523.09
2023-01-26T22:06:14.815Z,100528.03
2023-01-26T22:08:41.521Z,100509.81
2023-01-26T22:11:08.275Z,100513.94
2023-01-26T22:13:36.052Z,100512.25
2023-01-26T22:16:04.540Z,100505.91
2023-01-26T22:18:31.601Z,100504.59
2023-01-26T22:20:58.242Z,100502.81
2023-01-26T22:23:24.941Z,100504.25
2023-01-26T22:25:51.926Z,100502.63
2023-01-26T22:28:18.863Z,100502.44
2023-01-26T22:30:45.550Z,100500.66
2023-01-26T22:33:12.225Z,100488.16
2023-01-26T22:35:38.963Z,100493.12
2023-01-26T22:38:05.583Z,100485.41
2023-01-26T22:40:32.404Z,100487.78
2023-01-26T22:42:59.163Z,100481.59
2023-01-26T22:45:25.884Z,100474.03
2023-01-26T22:47:52.653Z,100474.72
2023-01-26T22:50:19.408Z,100472.22
2023-01-26T22:52:46.216Z,100466.03
2023-01-26T22:55:13.163Z,100465.72
2023-01-26T22:57:39.955Z,100459.56
2023-01-26T23:00:07.084Z,100472.16
2023-01-26T23:02:33.776Z,100470.13
2023-01-26T23:05:00.454Z,100472.59
2023-01-26T23:07:27.086Z,100475.06
2023-01-26T23:09:53.744Z,100480.97
2023-01-26T23:12:20.455Z,100478.09
2023-01-26T23:14:47.165Z,100484.72
2023-01-26T23:17:13.888Z,100482.84
2023-01-26T23:19:40.575Z,100484.63
2023-01-26T23:22:07.234Z,100476.25
2023-01-26T23:24:33.935Z,100482.69
2023-01-26T23:27:00.617Z,100478.03
2023-01-26T23:29:27.398Z,100484.28
2023-01-26T23:31:54.466Z,100477.28
2023-01-26T23:34:21.537Z,100479.66
2023-01-26T23:36:48.243Z,100471.41
2023-01-26T23:39:14.963Z,100471.06
2023-01-26T23:41:41.623Z,100467.25
2023-01-26T23:44:08.377Z,100468.63
2023-01-26T23:46:35.109Z,100466.91
2023-01-26T23:49:01.893Z,100459.72
2023-01-26T23:51:28.689Z,100467.44
2023-01-26T23:53:56.077Z,100468.75
2023-01-26T23:56:22.775Z,100470.56
2023-01-26T23:58:49.614Z,100465.69
